Englewood, Ohio
Current Conditions -  °F | °C
As of 3:56 AM on Sunday 21 Dec 2014 (Local Time) from KDAY Reporting Station
Haze Haze  
Wind Chill: 24°   Ceiling: 2300
Heat Index: 24°   Visibility: 5mi
Dew Point: 20°   Wind: 0mph
Humidity: 84%   Direction: NA
Pressure: 30.29"   Gusts: NA
Location:  39.88°N, 84.31°W
Report Text: KDAY 210856Z 00000KT 5SM BR BKN023 M04/M07 A3029 RMK AO2 SLP270 T10441067 50002
Loading
Personal Weather Stations






























Interactive Weather Map New forecast layout! Learn more

10-Day Weather Forecast

Advertisements
Track Severe Weather on mobile